createdAt,value
2017-12-20T00:02:00.449Z,16.30
2017-12-20T00:04:28.013Z,18.10
2017-12-20T00:06:55.553Z,20.73
2017-12-20T00:09:23.129Z,19.17
2017-12-20T00:11:50.667Z,22.08
2017-12-20T00:14:18.220Z,17.55
2017-12-20T00:16:46.537Z,16.95
2017-12-20T00:19:14.088Z,20.70
2017-12-20T00:21:41.616Z,17.30
2017-12-20T00:24:09.195Z,18.92
2017-12-20T00:26:36.728Z,17.55
2017-12-20T00:29:04.296Z,17.65
2017-12-20T00:31:31.848Z,16.65
2017-12-20T00:34:00.136Z,15.57
2017-12-20T00:36:27.678Z,16.50
2017-12-20T00:38:55.989Z,18.02
2017-12-20T00:41:23.536Z,16.12
2017-12-20T00:43:51.074Z,16.62
2017-12-20T00:46:19.402Z,18.02
2017-12-20T00:48:46.966Z,16.02
2017-12-20T00:51:14.505Z,17.65
2017-12-20T00:53:42.054Z,16.75
2017-12-20T00:56:09.576Z,16.12
2017-12-20T00:58:37.118Z,19.27
2017-12-20T01:01:04.657Z,14.18
2017-12-20T01:03:32.191Z,15.55
2017-12-20T01:05:59.753Z,15.75
2017-12-20T01:08:27.280Z,15.52
2017-12-20T01:10:55.594Z,15.75
2017-12-20T01:13:23.150Z,17.83
2017-12-20T01:15:50.680Z,17.87
2017-12-20T01:18:18.995Z,15.82
2017-12-20T01:20:46.549Z,17.75
2017-12-20T01:23:14.101Z,16.58
2017-12-20T01:25:41.653Z,15.73
2017-12-20T01:28:09.213Z,15.15
2017-12-20T01:30:36.740Z,17.70
2017-12-20T01:33:05.061Z,18.62
2017-12-20T01:35:32.621Z,15.88
2017-12-20T01:38:00.203Z,15.02
2017-12-20T01:40:27.730Z,19.55
2017-12-20T01:42:55.281Z,15.90
2017-12-20T01:45:23.577Z,15.65
2017-12-20T01:47:51.129Z,15.55
2017-12-20T01:50:18.652Z,15.48
2017-12-20T01:52:46.182Z,19.05
2017-12-20T01:55:15.671Z,17.48
2017-12-20T01:57:43.237Z,16.95
2017-12-20T02:00:10.825Z,20.02
2017-12-20T02:02:38.368Z,14.18
2017-12-20T02:05:05.916Z,14.10
2017-12-20T02:07:33.544Z,17.67
2017-12-20T02:10:01.106Z,16.45
2017-12-20T02:12:28.640Z,11.48
2017-12-20T02:14:56.194Z,16.77
2017-12-20T02:17:23.740Z,14.70
2017-12-20T02:19:51.269Z,15.07
2017-12-20T02:22:18.805Z,13.45
2017-12-20T02:24:46.351Z,15.85
2017-12-20T02:27:13.911Z,17.20
2017-12-20T02:29:41.575Z,13.85
2017-12-20T02:32:09.142Z,14.35
2017-12-20T02:34:36.690Z,15.40
2017-12-20T02:37:04.244Z,16.70
2017-12-20T02:39:31.781Z,18.98
2017-12-20T02:42:08.605Z,20.42
2017-12-20T02:44:36.198Z,17.85
2017-12-20T02:47:04.519Z,21.12
2017-12-20T02:49:32.117Z,17.00
2017-12-20T02:51:59.669Z,20.80
2017-12-20T02:54:27.193Z,21.92
2017-12-20T02:56:55.490Z,17.55
2017-12-20T02:59:23.085Z,19.73
2017-12-20T03:01:50.629Z,20.85
2017-12-20T03:04:18.177Z,17.92
2017-12-20T03:06:45.736Z,20.42
2017-12-20T03:09:13.292Z,19.50
2017-12-20T03:11:40.848Z,22.50
2017-12-20T03:14:08.414Z,21.00
2017-12-20T03:16:35.969Z,20.90
2017-12-20T03:19:03.516Z,18.45
2017-12-20T03:21:31.046Z,20.27
2017-12-20T03:23:58.607Z,16.52
2017-12-20T03:26:26.167Z,21.20
2017-12-20T03:28:53.701Z,24.20
2017-12-20T03:31:22.986Z,16.98
2017-12-20T03:33:51.298Z,20.85
2017-12-20T03:36:18.853Z,18.10
2017-12-20T03:38:46.380Z,15.35
2017-12-20T03:41:14.690Z,15.77
2017-12-20T03:43:42.215Z,14.68
2017-12-20T03:46:10.559Z,19.00
2017-12-20T03:48:38.100Z,19.55
2017-12-20T03:51:05.654Z,18.73
2017-12-20T03:53:33.194Z,19.35
2017-12-20T03:56:01.497Z,21.35
2017-12-20T03:58:29.045Z,23.70
2017-12-20T04:00:56.576Z,20.42
2017-12-20T04:03:24.891Z,27.00
2017-12-20T04:05:52.429Z,25.00
2017-12-20T04:08:20.739Z,19.35
2017-12-20T04:10:48.269Z,19.08
2017-12-20T04:13:15.828Z,24.02
2017-12-20T04:15:43.367Z,21.10
2017-12-20T04:18:11.670Z,18.00
2017-12-20T04:20:39.241Z,22.20
2017-12-20T04:23:06.789Z,17.12
2017-12-20T04:25:34.337Z,20.62
2017-12-20T04:28:02.657Z,20.67
2017-12-20T04:30:30.216Z,17.15
2017-12-20T04:32:57.744Z,22.62
2017-12-20T04:35:25.293Z,19.73
2017-12-20T04:37:53.605Z,17.92
2017-12-20T04:40:21.187Z,17.90
2017-12-20T04:42:48.713Z,19.75
2017-12-20T04:45:16.254Z,24.42
2017-12-20T04:47:44.585Z,16.80
2017-12-20T04:50:12.137Z,21.70
2017-12-20T04:52:39.692Z,21.92
2017-12-20T04:55:07.219Z,16.45
2017-12-20T04:57:34.790Z,15.18
2017-12-20T05:00:02.331Z,13.85
2017-12-20T05:02:30.644Z,17.98
2017-12-20T05:04:58.204Z,17.55
2017-12-20T05:07:25.740Z,20.42
2017-12-20T05:09:53.301Z,16.17
2017-12-20T05:12:20.832Z,19.45
2017-12-20T05:14:49.153Z,18.45
2017-12-20T05:17:16.691Z,18.52
2017-12-20T05:19:44.242Z,22.10
2017-12-20T05:22:11.781Z,18.45
2017-12-20T05:24:40.097Z,19.65
2017-12-20T05:27:07.658Z,22.98
2017-12-20T05:29:35.220Z,23.77
2017-12-20T05:32:02.756Z,23.75
2017-12-20T05:34:30.313Z,21.35
2017-12-20T05:36:57.844Z,15.73
2017-12-20T05:39:25.405Z,21.80
2017-12-20T05:41:52.932Z,20.42
2017-12-20T05:44:21.268Z,21.05
2017-12-20T05:46:48.801Z,20.45
2017-12-20T05:49:16.342Z,21.55
2017-12-20T05:51:44.647Z,19.70
2017-12-20T05:54:12.176Z,19.10
2017-12-20T05:56:40.488Z,19.92
2017-12-20T05:59:08.050Z,20.52
2017-12-20T06:01:35.602Z,21.37
2017-12-20T06:04:03.158Z,22.25
2017-12-20T06:06:30.717Z,22.48
2017-12-20T06:08:58.272Z,21.42
2017-12-20T06:11:27.173Z,21.30
2017-12-20T06:13:54.712Z,19.48
2017-12-20T06:16:23.037Z,23.75
2017-12-20T06:18:50.602Z,21.70
2017-12-20T06:21:18.128Z,26.30
2017-12-20T06:23:45.698Z,21.10
2017-12-20T06:26:13.225Z,18.98
2017-12-20T06:28:41.538Z,18.87
2017-12-20T06:31:09.082Z,17.83
2017-12-20T06:33:36.685Z,24.40
2017-12-20T06:36:04.226Z,23.95
2017-12-20T06:38:31.778Z,21.42
2017-12-20T06:40:59.309Z,24.23
2017-12-20T06:43:27.617Z,21.50
2017-12-20T06:45:55.147Z,22.98
2017-12-20T06:48:22.695Z,25.58
2017-12-20T06:50:50.223Z,18.33
2017-12-20T06:53:17.776Z,17.92
2017-12-20T06:55:46.107Z,18.62
2017-12-20T06:58:13.704Z,17.62
2017-12-20T07:00:41.217Z,20.15
2017-12-20T07:03:08.745Z,18.42
2017-12-20T07:05:36.340Z,15.13
2017-12-20T07:08:03.875Z,16.95
2017-12-20T07:10:31.424Z,15.32
2017-12-20T07:12:58.953Z,20.35
2017-12-20T07:15:27.285Z,20.90
2017-12-20T07:17:54.819Z,16.02
2017-12-20T07:20:22.380Z,16.08
2017-12-20T07:22:49.902Z,15.93
2017-12-20T07:25:17.453Z,11.70
2017-12-20T07:27:45.770Z,13.55
2017-12-20T07:30:13.322Z,13.45
2017-12-20T07:32:40.848Z,16.83
2017-12-20T07:35:09.151Z,15.27
2017-12-20T07:37:36.722Z,15.07
2017-12-20T07:40:04.275Z,11.82
2017-12-20T07:42:31.816Z,11.57
2017-12-20T07:44:59.358Z,11.10
2017-12-20T07:47:27.672Z,15.05
2017-12-20T07:49:55.220Z,13.00
2017-12-20T07:52:22.787Z,14.75
2017-12-20T07:54:50.309Z,10.80
2017-12-20T07:57:18.644Z,14.73
2017-12-20T07:59:46.217Z,15.15
2017-12-20T08:02:13.769Z,11.55
2017-12-20T08:04:41.317Z,11.25
2017-12-20T08:07:08.873Z,13.32
2017-12-20T08:09:36.457Z,11.57
2017-12-20T08:12:04.017Z,11.88
2017-12-20T08:14:31.562Z,8.98
2017-12-20T08:16:59.110Z,10.38
2017-12-20T08:19:26.643Z,11.50
2017-12-20T08:21:54.196Z,14.27
2017-12-20T08:24:21.738Z,10.00
2017-12-20T08:26:49.294Z,9.80
2017-12-20T08:29:17.594Z,11.63
2017-12-20T08:31:45.136Z,10.98
2017-12-20T08:34:13.443Z,10.43
2017-12-20T08:36:41.016Z,10.18
2017-12-20T08:39:08.568Z,9.48
2017-12-20T08:41:36.143Z,8.38
2017-12-20T08:44:03.684Z,10.00
2017-12-20T08:46:31.217Z,9.05
2017-12-20T08:48:58.753Z,7.47
2017-12-20T08:51:26.273Z,7.07
2017-12-20T08:53:53.815Z,9.13
2017-12-20T08:56:21.355Z,7.78
2017-12-20T08:58:48.897Z,7.00
2017-12-20T09:01:17.211Z,8.50
2017-12-20T09:03:44.763Z,8.07
2017-12-20T09:06:12.299Z,10.35
2017-12-20T09:08:40.608Z,8.43
2017-12-20T09:11:08.160Z,7.25
2017-12-20T09:13:35.685Z,7.22
2017-12-20T09:16:04.006Z,7.43
2017-12-20T09:18:31.541Z,8.73
2017-12-20T09:20:59.095Z,7.12
2017-12-20T09:23:27.402Z,8.70
2017-12-20T09:25:54.953Z,9.00
2017-12-20T09:28:22.480Z,7.07
2017-12-20T09:30:50.795Z,8.57
2017-12-20T09:33:18.317Z,7.82
2017-12-20T09:35:46.621Z,13.10
2017-12-20T09:38:14.173Z,8.30
2017-12-20T09:40:41.709Z,9.20
2017-12-20T09:43:09.256Z,7.50
2017-12-20T09:45:36.825Z,8.32
2017-12-20T09:48:04.377Z,10.77
2017-12-20T09:50:32.072Z,15.45
2017-12-20T09:53:00.374Z,6.15
2017-12-20T09:55:27.917Z,8.07
2017-12-20T09:57:55.968Z,7.82
2017-12-20T10:00:24.261Z,7.68
2017-12-20T10:02:52.581Z,7.35
2017-12-20T10:05:20.119Z,7.20
2017-12-20T10:07:47.668Z,6.95
2017-12-20T10:10:15.188Z,8.43
2017-12-20T10:12:42.709Z,6.05
2017-12-20T10:15:10.268Z,6.57
2017-12-20T10:17:37.792Z,6.30
2017-12-20T10:20:06.094Z,5.25
2017-12-20T10:22:33.618Z,6.85
2017-12-20T10:25:01.941Z,7.00
2017-12-20T10:27:29.466Z,6.30
2017-12-20T10:29:57.772Z,5.82
2017-12-20T10:32:25.297Z,6.10
2017-12-20T10:34:53.625Z,6.60
2017-12-20T10:37:21.186Z,5.75
2017-12-20T10:39:48.741Z,6.60
2017-12-20T10:42:16.270Z,12.20
2017-12-20T10:44:43.822Z,7.10
2017-12-20T10:47:12.136Z,6.87
2017-12-20T10:49:39.665Z,6.95
2017-12-20T10:52:07.217Z,4.95
2017-12-20T10:54:34.752Z,7.05
2017-12-20T10:57:02.408Z,8.30
2017-12-20T10:59:29.934Z,4.55
2017-12-20T11:01:58.252Z,6.05
2017-12-20T11:04:25.773Z,5.80
2017-12-20T11:06:54.086Z,4.10
2017-12-20T11:09:21.614Z,5.55
2017-12-20T11:11:49.926Z,8.52
2017-12-20T11:14:17.479Z,7.68
2017-12-20T11:16:45.046Z,4.68
2017-12-20T11:19:12.590Z,5.35
2017-12-20T11:21:40.145Z,4.25
2017-12-20T11:24:07.666Z,4.97
2017-12-20T11:26:35.209Z,5.87
2017-12-20T11:29:02.737Z,5.75
2017-12-20T11:31:30.281Z,5.40
2017-12-20T11:33:57.799Z,4.35
2017-12-20T11:36:25.333Z,4.93
2017-12-20T11:38:52.872Z,4.68
2017-12-20T11:41:20.437Z,4.65
2017-12-20T11:43:47.976Z,5.87
2017-12-20T11:46:15.499Z,6.25
2017-12-20T11:48:43.061Z,4.30
2017-12-20T11:51:10.621Z,4.50
2017-12-20T11:53:38.162Z,4.50
2017-12-20T11:56:05.692Z,5.03
2017-12-20T11:58:33.385Z,5.40
2017-12-20T12:01:00.922Z,3.95
2017-12-20T12:03:28.472Z,4.35
2017-12-20T12:05:55.999Z,3.78
2017-12-20T12:08:24.312Z,5.40
2017-12-20T12:10:51.834Z,4.78
2017-12-20T12:13:19.372Z,4.57
2017-12-20T12:15:46.917Z,6.85
2017-12-20T12:18:15.224Z,4.35
2017-12-20T12:20:42.769Z,6.70
2017-12-20T12:23:10.310Z,5.68
2017-12-20T12:25:38.647Z,7.22
2017-12-20T12:28:06.173Z,3.78
2017-12-20T12:30:33.732Z,4.85
2017-12-20T12:33:01.262Z,15.35
2017-12-20T12:35:29.567Z,8.35
2017-12-20T12:37:57.135Z,4.95
2017-12-20T12:40:24.680Z,4.68
2017-12-20T12:42:52.285Z,4.45
2017-12-20T12:45:19.805Z,3.97
2017-12-20T12:47:47.361Z,5.45
2017-12-20T12:50:14.900Z,4.28
2017-12-20T12:52:43.209Z,4.47
2017-12-20T12:55:10.734Z,4.62
2017-12-20T12:57:39.046Z,4.80
2017-12-20T13:00:06.711Z,4.60
2017-12-20T13:02:34.258Z,5.32
2017-12-20T13:05:01.784Z,5.07
2017-12-20T13:07:30.090Z,6.55
2017-12-20T13:09:57.633Z,6.28
2017-12-20T13:12:25.942Z,8.48
2017-12-20T13:14:53.473Z,6.78
2017-12-20T13:17:21.021Z,5.60
2017-12-20T13:19:49.313Z,7.50
2017-12-20T13:22:16.868Z,7.45
2017-12-20T13:24:45.202Z,6.47
2017-12-20T13:27:12.732Z,6.90
2017-12-20T13:29:40.293Z,5.62
2017-12-20T13:32:07.832Z,8.60
2017-12-20T13:34:35.376Z,6.80
2017-12-20T13:37:03.708Z,5.10
2017-12-20T13:39:31.243Z,7.87
2017-12-20T13:41:58.912Z,8.10
2017-12-20T13:44:26.455Z,9.68
2017-12-20T13:46:54.000Z,8.07
2017-12-20T13:49:22.332Z,10.38
2017-12-20T13:51:49.888Z,8.13
2017-12-20T13:54:17.421Z,10.60
2017-12-20T13:56:44.973Z,7.32
2017-12-20T13:59:12.521Z,11.85
2017-12-20T14:01:40.092Z,10.73
2017-12-20T14:04:07.651Z,9.55
2017-12-20T14:06:35.213Z,9.93
2017-12-20T14:09:03.429Z,9.20
2017-12-20T14:11:30.994Z,9.07
2017-12-20T14:13:58.629Z,10.02
2017-12-20T14:16:26.267Z,7.70
2017-12-20T14:18:53.891Z,8.05
2017-12-20T14:21:21.802Z,8.27
2017-12-20T14:23:49.657Z,12.27
2017-12-20T14:26:17.985Z,13.07
2017-12-20T14:28:45.509Z,9.73
2017-12-20T14:31:13.026Z,9.32
2017-12-20T14:33:40.582Z,9.43
2017-12-20T14:36:08.104Z,8.77
2017-12-20T14:38:35.760Z,9.15
2017-12-20T14:41:03.281Z,9.77
2017-12-20T14:43:31.595Z,11.07
2017-12-20T14:45:59.130Z,11.05
2017-12-20T14:48:27.445Z,8.75
2017-12-20T14:50:54.986Z,10.73
2017-12-20T14:53:22.553Z,12.70
2017-12-20T14:55:50.097Z,11.88
2017-12-20T14:58:17.627Z,8.95
2017-12-20T15:00:45.180Z,12.95
2017-12-20T15:03:12.713Z,12.60
2017-12-20T15:05:40.276Z,12.50
2017-12-20T15:08:07.806Z,10.27
2017-12-20T15:10:35.369Z,10.45
2017-12-20T15:13:02.936Z,9.43
2017-12-20T15:15:31.351Z,9.57
2017-12-20T15:17:58.878Z,10.05
2017-12-20T15:20:27.185Z,12.20
2017-12-20T15:22:54.745Z,11.77
2017-12-20T15:25:22.285Z,11.40
2017-12-20T15:27:49.827Z,12.57
2017-12-20T15:30:18.147Z,10.80
2017-12-20T15:32:45.698Z,9.48
2017-12-20T15:35:13.236Z,10.57
2017-12-20T15:37:41.369Z,12.25
2017-12-20T15:40:08.928Z,13.75
2017-12-20T15:42:36.504Z,14.38
2017-12-20T15:45:04.825Z,13.60
2017-12-20T15:47:32.356Z,13.60
2017-12-20T15:50:00.671Z,12.45
2017-12-20T15:52:28.210Z,11.85
2017-12-20T15:54:55.757Z,14.13
2017-12-20T15:57:24.114Z,13.20
2017-12-20T15:59:51.677Z,12.93
2017-12-20T16:02:19.208Z,15.30
2017-12-20T16:04:46.750Z,13.62
2017-12-20T16:07:14.284Z,11.55
2017-12-20T16:09:41.836Z,14.32
2017-12-20T16:12:10.168Z,16.40
2017-12-20T16:14:37.697Z,15.90
2017-12-20T16:17:05.256Z,13.82
2017-12-20T16:19:32.800Z,14.68
2017-12-20T16:22:00.359Z,15.13
2017-12-20T16:24:27.887Z,15.02
2017-12-20T16:26:56.217Z,11.95
2017-12-20T16:29:23.755Z,17.95
2017-12-20T16:31:51.301Z,16.62
2017-12-20T16:34:19.604Z,15.27
2017-12-20T16:36:47.173Z,17.08
2017-12-20T16:39:14.692Z,17.92
2017-12-20T16:41:43.009Z,17.37
2017-12-20T16:44:10.549Z,15.20
2017-12-20T16:46:38.107Z,14.65
2017-12-20T16:49:05.649Z,19.35
2017-12-20T16:51:33.976Z,17.73
2017-12-20T16:54:01.528Z,18.00
2017-12-20T16:56:29.085Z,19.23
2017-12-20T16:58:56.637Z,22.55
2017-12-20T17:01:24.186Z,18.33
2017-12-20T17:03:51.725Z,17.33
2017-12-20T17:06:19.265Z,16.67
2017-12-20T17:08:47.585Z,22.50
2017-12-20T17:11:15.134Z,18.12
2017-12-20T17:13:42.685Z,14.60
2017-12-20T17:16:10.221Z,16.05
2017-12-20T17:18:38.540Z,21.65
2017-12-20T17:21:06.079Z,20.73
2017-12-20T17:23:33.609Z,18.35
2017-12-20T17:26:01.156Z,19.12
2017-12-20T17:28:28.704Z,15.95
2017-12-20T17:30:56.242Z,15.60
2017-12-20T17:33:23.797Z,16.92
2017-12-20T17:35:51.481Z,18.60
2017-12-20T17:38:19.022Z,18.27
2017-12-20T17:40:46.566Z,22.35
2017-12-20T17:43:14.133Z,23.05
2017-12-20T17:45:41.716Z,21.05
2017-12-20T17:48:09.367Z,23.17
2017-12-20T17:50:36.989Z,21.10
2017-12-20T17:53:05.306Z,24.00
2017-12-20T17:55:32.845Z,20.08
2017-12-20T17:58:00.567Z,18.85
2017-12-20T18:00:28.093Z,21.10
2017-12-20T18:02:55.628Z,19.65
2017-12-20T18:05:23.185Z,21.52
2017-12-20T18:07:50.724Z,17.37
2017-12-20T18:10:19.112Z,18.50
2017-12-20T18:12:47.429Z,14.80
2017-12-20T18:15:14.994Z,17.87
2017-12-20T18:17:42.577Z,12.80
2017-12-20T18:20:10.112Z,13.32
2017-12-20T18:22:37.638Z,11.32
2017-12-20T18:25:05.188Z,25.95
2017-12-20T18:27:33.503Z,23.48
2017-12-20T18:30:01.037Z,18.70
2017-12-20T18:32:28.588Z,19.75
2017-12-20T18:34:56.909Z,19.35
2017-12-20T18:37:24.435Z,17.50
2017-12-20T18:39:51.985Z,14.98
2017-12-20T18:42:19.522Z,15.77
2017-12-20T18:44:47.948Z,17.62
2017-12-20T18:47:15.473Z,14.45
2017-12-20T18:49:43.808Z,13.62
2017-12-20T18:52:11.343Z,11.40
2017-12-20T18:54:38.899Z,14.32
2017-12-20T18:57:06.444Z,13.90
2017-12-20T18:59:34.011Z,11.10
2017-12-20T19:02:01.551Z,12.37
2017-12-20T19:04:29.889Z,14.23
2017-12-20T19:06:57.415Z,10.60
2017-12-20T19:09:24.963Z,13.35
2017-12-20T19:11:52.552Z,14.85
2017-12-20T19:14:20.077Z,12.05
2017-12-20T19:16:47.663Z,10.77
2017-12-20T19:19:15.204Z,10.98
2017-12-20T19:21:42.764Z,10.07
2017-12-20T19:24:10.339Z,16.12
2017-12-20T19:26:37.890Z,15.93
2017-12-20T19:29:05.477Z,17.62
2017-12-20T19:31:33.033Z,12.02
2017-12-20T19:34:00.580Z,20.85
2017-12-20T19:36:28.910Z,18.52
2017-12-20T19:38:56.440Z,13.65
2017-12-20T19:41:24.031Z,17.27
2017-12-20T19:43:51.585Z,11.00
2017-12-20T19:46:19.128Z,19.20
2017-12-20T19:48:46.686Z,16.70
2017-12-20T19:51:14.246Z,16.65
2017-12-20T19:53:41.789Z,16.42
2017-12-20T19:56:09.330Z,13.52
2017-12-20T19:58:36.922Z,14.30
2017-12-20T20:01:04.474Z,8.20
2017-12-20T20:03:32.037Z,19.70
2017-12-20T20:05:59.584Z,13.43
2017-12-20T20:08:27.153Z,18.62
2017-12-20T20:10:54.697Z,16.70
2017-12-20T20:13:22.268Z,11.90
2017-12-20T20:15:49.859Z,15.20
2017-12-20T20:18:17.385Z,11.48
2017-12-20T20:20:44.937Z,15.65
2017-12-20T20:23:12.480Z,13.23
2017-12-20T20:25:40.030Z,12.50
2017-12-20T20:28:08.331Z,14.00
2017-12-20T20:30:35.897Z,14.45
2017-12-20T20:33:03.476Z,10.18
2017-12-20T20:35:31.051Z,16.90
2017-12-20T20:37:58.580Z,13.00
2017-12-20T20:40:26.130Z,15.80
2017-12-20T20:42:53.685Z,13.38
2017-12-20T20:45:21.363Z,19.75
2017-12-20T20:47:49.056Z,17.90
2017-12-20T20:50:16.599Z,13.05
2017-12-20T20:52:44.159Z,13.48
2017-12-20T20:55:11.695Z,13.88
2017-12-20T20:57:39.265Z,11.98
2017-12-20T21:00:06.917Z,16.02
2017-12-20T21:02:34.482Z,29.55
2017-12-20T21:05:02.022Z,41.60
2017-12-20T21:07:29.576Z,31.58
2017-12-20T21:09:57.124Z,24.23
2017-12-20T21:12:24.821Z,18.33
2017-12-20T21:14:52.385Z,21.70
2017-12-20T21:17:19.920Z,24.17
2017-12-20T21:19:47.475Z,14.52
2017-12-20T21:22:15.016Z,17.37
2017-12-20T21:24:45.150Z,21.73
2017-12-20T21:27:12.721Z,20.75
2017-12-20T21:29:40.256Z,14.20
2017-12-20T21:32:08.570Z,17.95
2017-12-20T21:34:36.106Z,18.73
2017-12-20T21:37:04.428Z,15.98
2017-12-20T21:39:31.973Z,12.20
2017-12-20T21:41:59.513Z,13.32
2017-12-20T21:44:27.076Z,13.43
2017-12-20T21:46:54.595Z,11.75
2017-12-20T21:49:22.176Z,13.13
2017-12-20T21:51:50.590Z,11.02
2017-12-20T21:54:19.453Z,10.75
2017-12-20T21:56:47.794Z,10.57
2017-12-20T21:59:15.342Z,11.85
2017-12-20T22:01:42.892Z,10.90
2017-12-20T22:04:10.434Z,12.50
2017-12-20T22:06:37.969Z,13.27
2017-12-20T22:09:06.310Z,11.63
2017-12-20T22:11:33.874Z,11.15
2017-12-20T22:14:01.446Z,10.98
2017-12-20T22:16:28.977Z,13.27
2017-12-20T22:18:56.508Z,13.95
2017-12-20T22:21:24.050Z,12.95
2017-12-20T22:23:51.589Z,11.12
2017-12-20T22:26:19.662Z,11.82
2017-12-20T22:28:48.135Z,10.20
2017-12-20T22:31:15.737Z,13.90
2017-12-20T22:33:43.306Z,12.45
2017-12-20T22:36:10.865Z,11.25
2017-12-20T22:38:38.429Z,11.70
2017-12-20T22:41:05.956Z,10.63
2017-12-20T22:43:33.522Z,10.70
2017-12-20T22:46:01.045Z,12.05
2017-12-20T22:48:28.615Z,14.95
2017-12-20T22:50:56.172Z,10.70
2017-12-20T22:53:23.751Z,12.13
2017-12-20T22:55:51.312Z,15.45
2017-12-20T22:58:18.917Z,14.43
2017-12-20T23:00:46.530Z,11.10
2017-12-20T23:03:14.051Z,9.93
2017-12-20T23:05:42.387Z,12.13
2017-12-20T23:08:11.469Z,12.52
2017-12-20T23:10:39.854Z,15.00
2017-12-20T23:13:07.407Z,12.18
2017-12-20T23:15:35.058Z,13.13
2017-12-20T23:18:02.596Z,8.95
2017-12-20T23:20:30.125Z,10.98
2017-12-20T23:22:57.751Z,10.48
2017-12-20T23:25:25.309Z,15.50
2017-12-20T23:27:52.860Z,17.62
2017-12-20T23:30:20.416Z,11.32
2017-12-20T23:32:47.958Z,13.45
2017-12-20T23:35:15.504Z,14.18
2017-12-20T23:37:43.025Z,13.95
2017-12-20T23:40:10.580Z,13.57
2017-12-20T23:42:38.140Z,15.55
2017-12-20T23:45:05.673Z,14.87
2017-12-20T23:47:33.217Z,19.12
2017-12-20T23:50:00.754Z,22.30
2017-12-20T23:52:28.326Z,16.75
2017-12-20T23:54:55.885Z,15.18
2017-12-20T23:57:23.453Z,17.58
2017-12-20T23:59:50.980Z,17.10
